createdAt,value
2022-09-07T00:01:36.931Z,17.70
2022-09-07T00:04:24.378Z,17.70
2022-09-07T00:07:13.404Z,17.60
2022-09-07T00:10:00.437Z,17.70
2022-09-07T00:12:47.947Z,17.60
2022-09-07T00:15:39.665Z,17.60
2022-09-07T00:18:27.405Z,17.50
2022-09-07T00:21:16.179Z,17.50
2022-09-07T00:24:05.106Z,17.50
2022-09-07T00:26:55.342Z,17.50
2022-09-07T00:29:42.779Z,17.40
2022-09-07T00:32:29.885Z,17.30
2022-09-07T00:35:17.438Z,17.30
2022-09-07T00:38:04.605Z,17.30
2022-09-07T00:40:53.293Z,17.20
2022-09-07T00:43:43.621Z,17.20
2022-09-07T00:46:32.272Z,17.10
2022-09-07T00:49:23.057Z,17.00
2022-09-07T00:52:11.717Z,17.00
2022-09-07T00:55:03.019Z,17.00
2022-09-07T00:57:54.816Z,17.00
2022-09-07T01:00:44.429Z,17.00
2022-09-07T01:03:36.575Z,17.00
2022-09-07T01:06:29.020Z,17.00
2022-09-07T01:09:19.835Z,17.00
2022-09-07T01:12:07.485Z,16.90
2022-09-07T01:14:56.577Z,16.80
2022-09-07T01:17:54.393Z,16.80
2022-09-07T01:21:10.594Z,16.70
2022-09-07T01:24:35.943Z,16.70
2022-09-07T01:27:54.210Z,16.70
2022-09-07T01:31:05.057Z,16.60
2022-09-07T01:34:01.159Z,16.60
2022-09-07T01:36:56.673Z,16.60
2022-09-07T01:39:53.953Z,16.60
2022-09-07T01:42:50.271Z,16.60
2022-09-07T01:45:42.392Z,16.60
2022-09-07T01:48:29.699Z,16.50
2022-09-07T01:51:20.268Z,16.50
2022-09-07T01:54:14.697Z,16.50
2022-09-07T01:57:05.366Z,16.40
2022-09-07T01:59:59.536Z,16.40
2022-09-07T02:02:49.814Z,16.30
2022-09-07T02:05:42.669Z,16.40
2022-09-07T02:08:33.379Z,16.30
2022-09-07T02:11:22.567Z,16.30
2022-09-07T02:14:15.430Z,16.20
2022-09-07T02:17:08.573Z,16.20
2022-09-07T02:19:59.875Z,16.10
2022-09-07T02:22:52.345Z,16.10
2022-09-07T02:25:44.649Z,16.10
2022-09-07T02:28:34.589Z,16.10
2022-09-07T02:31:22.101Z,16.10
2022-09-07T02:34:11.367Z,16.00
2022-09-07T02:37:01.869Z,16.00
2022-09-07T02:39:49.888Z,16.00
2022-09-07T02:42:37.954Z,16.00
2022-09-07T02:45:25.193Z,16.00
2022-09-07T02:48:18.651Z,16.00
2022-09-07T02:51:16.499Z,15.90
2022-09-07T02:54:21.168Z,15.90
2022-09-07T02:57:15.253Z,15.80
2022-09-07T03:00:10.827Z,15.70
2022-09-07T03:03:06.173Z,15.80
2022-09-07T03:05:57.734Z,15.70
2022-09-07T03:08:49.843Z,15.70
2022-09-07T03:11:37.995Z,15.60
2022-09-07T03:14:26.826Z,15.50
2022-09-07T03:17:14.667Z,15.50
2022-09-07T03:20:01.777Z,15.60
2022-09-07T03:22:51.443Z,15.40
2022-09-07T03:25:40.107Z,15.30
2022-09-07T03:28:27.416Z,15.20
2022-09-07T03:31:14.747Z,15.30
2022-09-07T03:34:02.194Z,15.20
2022-09-07T03:36:49.575Z,15.20
2022-09-07T03:39:37.212Z,15.20
2022-09-07T03:42:25.600Z,15.20
2022-09-07T03:45:12.845Z,15.10
2022-09-07T03:47:59.936Z,15.10
2022-09-07T03:50:56.736Z,15.20
2022-09-07T03:53:46.042Z,15.00
2022-09-07T03:56:33.446Z,15.00
2022-09-07T03:59:22.109Z,15.00
2022-09-07T04:02:09.339Z,15.00
2022-09-07T04:04:56.561Z,15.00
2022-09-07T04:07:43.775Z,15.00
2022-09-07T04:10:31.169Z,15.00
2022-09-07T04:13:18.678Z,15.00
2022-09-07T04:16:15.570Z,15.00
2022-09-07T04:19:03.345Z,15.00
2022-09-07T04:21:51.340Z,14.90
2022-09-07T04:24:38.486Z,14.90
2022-09-07T04:27:25.889Z,14.80
2022-09-07T04:30:14.607Z,14.80
2022-09-07T04:33:03.082Z,14.90
2022-09-07T04:35:50.281Z,14.90
2022-09-07T04:38:39.858Z,14.80
2022-09-07T04:41:28.406Z,14.80
2022-09-07T04:44:17.156Z,14.70
2022-09-07T04:47:04.430Z,14.80
2022-09-07T04:49:53.594Z,14.80
2022-09-07T04:52:40.766Z,14.80
2022-09-07T04:55:28.184Z,14.80
2022-09-07T04:58:15.434Z,14.90
2022-09-07T05:01:03.407Z,14.90
2022-09-07T05:03:51.470Z,14.90
2022-09-07T05:06:39.961Z,15.00
2022-09-07T05:09:27.365Z,15.00
2022-09-07T05:12:14.754Z,15.00
2022-09-07T05:15:02.521Z,15.00
2022-09-07T05:17:50.151Z,15.10
2022-09-07T05:20:37.676Z,15.10
2022-09-07T05:23:26.222Z,15.10
2022-09-07T05:26:13.600Z,15.10
2022-09-07T05:32:11.263Z,15.20
2022-09-07T05:34:58.425Z,15.20
2022-09-07T05:37:45.978Z,15.20
2022-09-07T05:40:40.403Z,15.30
2022-09-07T05:43:28.025Z,15.40
2022-09-07T05:46:16.715Z,15.50
2022-09-07T05:49:05.234Z,15.50
2022-09-07T05:51:52.739Z,15.60
2022-09-07T05:54:40.130Z,15.70
2022-09-07T05:57:28.931Z,15.80
2022-09-07T06:00:16.720Z,16.00
2022-09-07T06:03:04.094Z,16.20
2022-09-07T06:05:59.758Z,16.40
2022-09-07T06:08:48.932Z,16.60
2022-09-07T06:11:37.866Z,16.70
2022-09-07T06:14:26.672Z,16.90
2022-09-07T06:17:14.110Z,16.90
2022-09-07T06:20:01.399Z,17.20
2022-09-07T06:22:48.603Z,17.40
2022-09-07T06:25:35.865Z,17.60
2022-09-07T06:28:28.918Z,17.70
2022-09-07T06:31:20.150Z,17.80
2022-09-07T06:34:07.711Z,17.90
2022-09-07T06:36:54.942Z,17.90
2022-09-07T06:39:42.279Z,17.90
2022-09-07T06:42:29.546Z,18.00
2022-09-07T06:45:18.064Z,18.00
2022-09-07T06:48:06.498Z,18.10
2022-09-07T06:50:58.348Z,18.30
2022-09-07T06:53:46.036Z,18.30
2022-09-07T06:56:33.173Z,18.10
2022-09-07T06:59:20.422Z,17.90
2022-09-07T07:02:08.150Z,17.90
2022-09-07T07:04:56.763Z,18.00
2022-09-07T07:07:44.277Z,18.00
2022-09-07T07:10:31.541Z,18.10
2022-09-07T07:16:06.864Z,18.50
2022-09-07T07:18:56.251Z,18.60
2022-09-07T07:22:10.381Z,19.00
2022-09-07T07:24:51.502Z,19.30
2022-09-07T07:27:39.599Z,19.70
2022-09-07T07:30:26.999Z,19.80
2022-09-07T07:33:14.411Z,20.00
2022-09-07T07:36:12.673Z,20.20
2022-09-07T07:39:02.106Z,20.60
2022-09-07T07:41:53.836Z,20.40
2022-09-07T07:44:42.800Z,20.50
2022-09-07T07:47:30.060Z,20.50
2022-09-07T07:50:33.714Z,20.40
2022-09-07T07:56:30.029Z,21.10
2022-09-07T07:59:17.438Z,20.90
2022-09-07T08:02:05.825Z,20.90
2022-09-07T08:04:53.735Z,21.20
2022-09-07T08:07:40.821Z,21.70
2022-09-07T08:10:29.609Z,21.90
2022-09-07T08:13:19.050Z,21.50
2022-09-07T08:16:06.635Z,21.90
2022-09-07T08:18:53.961Z,22.00
2022-09-07T08:21:41.136Z,22.50
2022-09-07T08:24:28.334Z,22.50
2022-09-07T08:27:15.470Z,22.70
2022-09-07T08:30:03.906Z,22.90
2022-09-07T08:32:51.706Z,22.70
2022-09-07T08:35:38.513Z,22.30
2022-09-07T08:38:26.213Z,22.80
2022-09-07T08:41:40.681Z,23.00
2022-09-07T08:44:32.666Z,23.10
2022-09-07T08:47:30.486Z,23.20
2022-09-07T08:50:22.948Z,23.60
2022-09-07T08:53:14.704Z,23.60
2022-09-07T08:56:06.922Z,23.50
2022-09-07T08:58:55.596Z,23.70
2022-09-07T09:02:26.832Z,23.60
2022-09-07T09:08:14.126Z,23.50
2022-09-07T09:11:07.336Z,23.30
2022-09-07T09:14:02.870Z,23.60
2022-09-07T09:16:55.107Z,23.50
2022-09-07T09:19:54.402Z,23.30
2022-09-07T09:22:41.770Z,23.30
2022-09-07T09:25:34.598Z,23.90
2022-09-07T09:28:21.937Z,23.90
2022-09-07T09:31:17.770Z,23.80
2022-09-07T09:34:11.435Z,24.20
2022-09-07T09:36:59.848Z,24.30
2022-09-07T09:40:02.113Z,24.40
2022-09-07T09:43:03.595Z,24.00
2022-09-07T09:49:04.304Z,24.40
2022-09-07T09:55:30.159Z,24.90
2022-09-07T10:04:44.663Z,24.70
2022-09-07T10:07:32.499Z,24.40
2022-09-07T10:10:21.763Z,24.60
2022-09-07T10:13:21.704Z,24.80
2022-09-07T10:16:10.337Z,24.80
2022-09-07T10:18:59.700Z,24.80
2022-09-07T10:21:47.046Z,24.60
2022-09-07T10:29:47.024Z,24.50
2022-09-07T10:32:51.439Z,24.20
2022-09-07T10:35:46.870Z,24.20
2022-09-07T10:38:40.360Z,24.20
2022-09-07T10:41:40.578Z,24.10
2022-09-07T10:44:43.266Z,24.20
2022-09-07T10:47:47.786Z,24.10
2022-09-07T10:50:43.408Z,24.00
2022-09-07T10:53:41.692Z,24.00
2022-09-07T10:56:34.066Z,24.10
2022-09-07T11:06:20.008Z,24.10
2022-09-07T11:09:32.927Z,24.10
2022-09-07T11:12:27.824Z,24.20
2022-09-07T11:15:23.519Z,24.20
2022-09-07T11:18:18.320Z,24.20
2022-09-07T11:21:13.513Z,24.20
2022-09-07T11:24:09.198Z,24.30
2022-09-07T11:27:01.430Z,24.30
2022-09-07T11:29:53.246Z,24.40
2022-09-07T11:32:46.509Z,24.50
2022-09-07T11:35:41.963Z,24.40
2022-09-07T11:38:34.764Z,24.60
2022-09-07T11:41:28.238Z,24.80
2022-09-07T11:44:22.242Z,24.80
2022-09-07T11:47:38.123Z,24.70
2022-09-07T11:50:26.122Z,24.60
2022-09-07T11:53:21.227Z,24.60
2022-09-07T11:56:14.879Z,24.50
2022-09-07T11:59:22.910Z,24.30
2022-09-07T12:02:58.138Z,24.30
2022-09-07T12:06:06.801Z,24.40
2022-09-07T12:09:09.669Z,24.50
2022-09-07T12:12:24.686Z,24.60
2022-09-07T12:15:22.340Z,24.70
2022-09-07T12:18:21.010Z,24.80
2022-09-07T12:21:32.379Z,24.90
2022-09-07T12:24:42.216Z,24.80
2022-09-07T12:27:42.286Z,25.00
2022-09-07T12:30:58.139Z,24.90
2022-09-07T12:33:46.066Z,24.80
2022-09-07T12:36:50.581Z,24.60
2022-09-07T12:39:43.521Z,24.60
2022-09-07T12:47:41.280Z,24.60
2022-09-07T12:50:31.683Z,24.60
2022-09-07T12:53:28.453Z,24.60
2022-09-07T12:57:30.264Z,24.60
2022-09-07T13:00:24.264Z,24.60
2022-09-07T13:03:53.335Z,24.60
2022-09-07T13:07:07.787Z,24.70
2022-09-07T13:09:57.417Z,24.60
2022-09-07T13:12:57.279Z,24.60
2022-09-07T13:15:48.862Z,24.60
2022-09-07T13:18:46.400Z,24.60
2022-09-07T13:26:03.103Z,24.60
2022-09-07T13:28:56.054Z,24.70
2022-09-07T13:32:00.198Z,24.80
2022-09-07T13:34:50.900Z,24.80
2022-09-07T13:37:46.239Z,24.70
2022-09-07T13:40:39.088Z,24.70
2022-09-07T13:43:26.229Z,24.60
2022-09-07T13:46:29.064Z,24.70
2022-09-07T13:54:49.833Z,25.10
2022-09-07T13:57:48.404Z,25.50
2022-09-07T14:00:35.998Z,25.50
2022-09-07T14:03:24.835Z,25.50
2022-09-07T14:06:16.824Z,25.60
2022-09-07T14:09:07.011Z,25.40
2022-09-07T14:11:55.647Z,25.30
2022-09-07T14:14:42.710Z,25.10
2022-09-07T14:17:31.240Z,25.10
2022-09-07T14:20:19.300Z,25.10
2022-09-07T14:23:12.667Z,25.10
2022-09-07T14:26:17.162Z,25.10
2022-09-07T14:29:05.953Z,25.20
2022-09-07T14:31:54.424Z,25.20
2022-09-07T14:34:43.227Z,25.20
2022-09-07T14:37:30.746Z,25.20
2022-09-07T14:40:22.067Z,25.20
2022-09-07T14:44:00.911Z,25.10
2022-09-07T14:46:55.147Z,25.00
2022-09-07T14:49:43.834Z,25.00
2022-09-07T14:52:40.486Z,25.10
2022-09-07T14:55:33.849Z,25.10
2022-09-07T14:58:25.646Z,25.10
2022-09-07T15:04:31.104Z,25.20
2022-09-07T15:07:30.695Z,25.30
2022-09-07T15:10:37.453Z,25.40
2022-09-07T15:13:30.010Z,25.50
2022-09-07T15:16:23.635Z,25.70
2022-09-07T15:19:32.556Z,25.70
2022-09-07T15:22:21.999Z,25.60
2022-09-07T15:25:12.043Z,25.50
2022-09-07T15:27:59.376Z,25.50
2022-09-07T15:31:39.251Z,25.50
2022-09-07T15:33:53.320Z,25.50
2022-09-07T15:36:43.921Z,25.60
2022-09-07T15:39:31.397Z,25.60
2022-09-07T15:45:26.345Z,25.50
2022-09-07T15:48:14.614Z,25.50
2022-09-07T15:51:04.485Z,25.50
2022-09-07T15:54:12.798Z,25.50
2022-09-07T16:00:07.929Z,25.40
2022-09-07T16:03:08.150Z,25.30
2022-09-07T16:05:56.086Z,25.30
2022-09-07T16:08:43.155Z,25.30
2022-09-07T16:11:34.967Z,25.20
2022-09-07T16:14:23.021Z,25.20
2022-09-07T16:17:27.230Z,25.10
2022-09-07T16:20:17.713Z,25.00
2022-09-07T16:23:20.018Z,24.90
2022-09-07T16:26:09.104Z,24.90
2022-09-07T16:28:57.954Z,24.80
2022-09-07T16:34:52.321Z,24.70
2022-09-07T16:38:43.609Z,24.60
2022-09-07T16:40:46.736Z,24.60
2022-09-07T16:43:33.963Z,24.50
2022-09-07T16:46:24.599Z,24.40
2022-09-07T16:49:12.440Z,24.40
2022-09-07T16:51:59.400Z,24.40
2022-09-07T16:54:46.858Z,24.30
2022-09-07T17:00:50.121Z,24.30
2022-09-07T17:03:49.426Z,24.30
2022-09-07T17:06:36.897Z,24.30
2022-09-07T17:09:26.715Z,24.20
2022-09-07T17:12:13.747Z,24.10
2022-09-07T17:20:18.172Z,24.10
2022-09-07T17:23:05.327Z,23.90
2022-09-07T17:25:52.341Z,23.60
2022-09-07T17:28:40.435Z,23.10
2022-09-07T17:34:36.550Z,22.50
2022-09-07T17:37:25.725Z,22.20
2022-09-07T17:40:12.663Z,21.90
2022-09-07T17:46:09.760Z,21.50
2022-09-07T17:48:59.866Z,21.40
2022-09-07T17:51:47.266Z,21.30
2022-09-07T17:54:35.678Z,21.30
2022-09-07T17:57:22.644Z,21.40
2022-09-07T18:00:12.151Z,21.20
2022-09-07T18:02:59.722Z,21.20
2022-09-07T18:05:47.011Z,21.10
2022-09-07T18:08:34.252Z,21.00
2022-09-07T18:15:22.095Z,21.00
2022-09-07T18:18:12.393Z,20.90
2022-09-07T18:20:59.477Z,21.00
2022-09-07T18:23:46.897Z,20.90
2022-09-07T18:26:38.324Z,20.90
2022-09-07T18:29:33.444Z,20.90
2022-09-07T18:32:21.096Z,20.90
2022-09-07T18:35:09.160Z,20.90
2022-09-07T18:37:56.145Z,20.90
2022-09-07T18:40:43.372Z,21.00
2022-09-07T18:43:33.534Z,20.90
2022-09-07T18:46:23.108Z,20.80
2022-09-07T18:49:10.235Z,20.80
2022-09-07T18:55:04.715Z,20.80
2022-09-07T18:57:51.970Z,20.80
2022-09-07T19:00:45.030Z,20.80
2022-09-07T19:03:32.719Z,20.90
2022-09-07T19:06:19.667Z,20.90
2022-09-07T19:09:07.002Z,20.90
2022-09-07T19:11:54.151Z,20.80
2022-09-07T19:14:42.093Z,20.90
2022-09-07T19:17:30.694Z,20.80
2022-09-07T19:20:18.381Z,20.80
2022-09-07T19:23:06.425Z,20.70
2022-09-07T19:25:54.347Z,20.70
2022-09-07T19:28:41.418Z,20.70
2022-09-07T19:31:30.457Z,20.60
2022-09-07T19:34:19.111Z,20.60
2022-09-07T19:37:09.498Z,20.60
2022-09-07T19:39:56.591Z,20.50
2022-09-07T19:42:44.867Z,20.50
2022-09-07T19:45:32.026Z,20.60
2022-09-07T19:48:19.078Z,20.60
2022-09-07T19:51:09.696Z,20.50
2022-09-07T19:53:56.719Z,20.50
2022-09-07T19:56:45.568Z,20.40
2022-09-07T19:59:33.010Z,20.40
2022-09-07T20:02:20.267Z,20.40
2022-09-07T20:05:08.105Z,20.40
2022-09-07T20:07:56.798Z,20.40
2022-09-07T20:10:44.192Z,20.40
2022-09-07T20:13:31.596Z,20.40
2022-09-07T20:17:09.703Z,20.40
2022-09-07T20:19:57.004Z,20.30
2022-09-07T20:22:44.441Z,20.20
2022-09-07T20:30:32.393Z,20.20
2022-09-07T20:33:21.563Z,20.00
2022-09-07T20:36:11.347Z,20.00
2022-09-07T20:38:58.673Z,19.90
2022-09-07T20:41:46.105Z,19.80
2022-09-07T20:44:33.373Z,19.70
2022-09-07T20:47:21.951Z,19.80
2022-09-07T20:50:09.354Z,19.70
2022-09-07T20:52:56.727Z,19.70
2022-09-07T20:55:43.475Z,19.70
2022-09-07T20:58:31.078Z,19.60
2022-09-07T21:01:19.178Z,19.70
2022-09-07T21:04:07.896Z,19.60
2022-09-07T21:06:55.133Z,19.50
2022-09-07T21:09:42.214Z,19.50
2022-09-07T21:12:29.507Z,19.50
2022-09-07T21:15:16.733Z,19.50
2022-09-07T21:18:03.522Z,19.50
2022-09-07T21:21:18.287Z,19.50
2022-09-07T21:24:05.710Z,19.50
2022-09-07T21:26:53.087Z,19.40
2022-09-07T21:29:40.490Z,19.40
2022-09-07T21:32:27.802Z,19.30
2022-09-07T21:35:14.792Z,19.20
2022-09-07T21:38:03.546Z,19.20
2022-09-07T21:40:50.774Z,19.20
2022-09-07T21:43:38.153Z,19.20
2022-09-07T21:46:26.639Z,19.10
2022-09-07T21:49:14.035Z,19.00
2022-09-07T21:52:01.103Z,19.10
2022-09-07T21:54:49.391Z,19.00
2022-09-07T21:57:36.741Z,19.00
2022-09-07T22:00:24.081Z,19.00
2022-09-07T22:03:11.141Z,19.00
2022-09-07T22:06:02.565Z,19.00
2022-09-07T22:08:50.025Z,18.90
2022-09-07T22:11:39.780Z,18.90
2022-09-07T22:14:28.984Z,18.80
2022-09-07T22:17:16.321Z,18.80
2022-09-07T22:20:04.283Z,18.80
2022-09-07T22:22:51.295Z,18.80
2022-09-07T22:25:38.796Z,18.70
2022-09-07T22:28:29.107Z,18.70
2022-09-07T22:31:18.692Z,18.70
2022-09-07T22:34:08.955Z,18.60
2022-09-07T22:36:56.045Z,18.50
2022-09-07T22:39:43.427Z,18.40
2022-09-07T22:42:30.746Z,18.40
2022-09-07T22:45:19.319Z,18.30
2022-09-07T22:48:06.983Z,18.40
2022-09-07T22:50:55.993Z,18.40
2022-09-07T22:53:43.946Z,18.40
2022-09-07T22:56:33.066Z,18.30
2022-09-07T22:59:20.155Z,18.30
2022-09-07T23:02:08.555Z,18.30
2022-09-07T23:04:55.971Z,18.20
2022-09-07T23:07:43.114Z,18.20
2022-09-07T23:10:30.845Z,18.20
2022-09-07T23:13:18.255Z,18.20
2022-09-07T23:16:06.277Z,18.10
2022-09-07T23:18:55.737Z,18.10
2022-09-07T23:21:43.090Z,18.10
2022-09-07T23:24:30.976Z,18.00
2022-09-07T23:27:18.213Z,18.00
2022-09-07T23:30:06.269Z,17.90
2022-09-07T23:32:53.851Z,17.90
2022-09-07T23:35:42.769Z,17.90
2022-09-07T23:38:31.258Z,17.90
2022-09-07T23:41:18.509Z,17.90
2022-09-07T23:44:05.753Z,17.80
2022-09-07T23:46:52.980Z,17.80
2022-09-07T23:49:40.161Z,17.80
2022-09-07T23:52:28.794Z,17.80
2022-09-07T23:55:15.847Z,17.80
2022-09-07T23:58:03.021Z,17.80
